Terminal Aerodrome Forecast
Issued by NWS Pueblo, CO

Home | Current Version | Previous Version | Text Only | Print | Product List | Glossary On
Versions: 1 2 3 4 5 6 7 8 9 10 11 12 13 14 15 16 17 18 19 20 21 22 23 24
000
FTUS45 KPUB 292018 AAB
TAFPUB
TAF AMD
KPUB 292018Z 2920/3018 14012KT P6SM VCTS SCT100CB BKN200
      TEMPO 2920/2923 VRB20G30KT -TSRA BKN090CB
     FM292300 12012KT P6SM VCTS SCT100CB BKN150
     FM300200 34008KT P6SM SCT120 BKN200
     FM300600 29006KT P6SM SCT200=

USA.gov is the U.S. government's official web portal to all federal, state and local government web resources and services.